Time;durP1;ratioP1;P1;durP2;ratioP2;P2;SDS_P1;SDS_P2;PMS_P1;PMS_P2;Temp;Humidity;BMP_temperature;BMP_pressure;BME280_temperature;BME280_humidity;BME280_pressure;Samples;Min_cycle;Max_cycle;Signal;HPM_P1;HPM_P2
2021/01/15 00:00:24;;;;;;;13.33;9.70;;;-0.80;77.90;;;;;;5062628;28;20472;-81
2021/01/15 00:02:53;;;;;;;15.23;11.00;;;-0.80;77.80;;;;;;5065956;28;20806;-82
2021/01/15 00:05:24;;;;;;;12.53;10.53;;;-0.80;77.80;;;;;;5054544;28;21025;-83
2021/01/15 00:07:51;;;;;;;15.57;10.77;;;-0.80;78.20;;;;;;5041495;28;20660;-81
2021/01/15 00:10:17;;;;;;;18.67;10.60;;;-0.80;78.20;;;;;;5058936;28;20541;-80
2021/01/15 00:12:45;;;;;;;13.70;9.63;;;-0.80;79.10;;;;;;5064220;28;20474;-81
2021/01/15 00:15:18;;;;;;;12.37;9.83;;;-0.90;79.20;;;;;;5065555;28;20464;-80
2021/01/15 00:17:46;;;;;;;12.20;10.77;;;-0.90;79.70;;;;;;5075121;28;20450;-80
2021/01/15 00:20:13;;;;;;;14.70;9.80;;;-0.80;79.50;;;;;;5068484;28;20458;-81
2021/01/15 00:22:44;;;;;;;11.03;9.43;;;-0.90;79.10;;;;;;5060638;28;20457;-80
2021/01/15 00:25:14;;;;;;;15.27;10.13;;;-1.00;79.30;;;;;;5058674;28;20452;-81
2021/01/15 00:27:41;;;;;;;13.10;9.20;;;-1.00;79.40;;;;;;5058010;28;20509;-81
2021/01/15 00:30:11;;;;;;;10.90;9.17;;;-1.00;79.20;;;;;;5048944;28;20451;-80
2021/01/15 00:32:43;;;;;;;12.57;8.97;;;-1.00;79.10;;;;;;5054908;28;20438;-81
2021/01/15 00:35:10;;;;;;;13.80;8.93;;;-0.90;79.00;;;;;;5052504;28;20445;-81
2021/01/15 00:37:39;;;;;;;9.20;8.20;;;-0.90;78.60;;;;;;5057734;28;20460;-82
2021/01/15 00:40:07;;;;;;;10.27;8.20;;;-0.90;78.50;;;;;;5049816;28;22281;-81
2021/01/15 00:42:38;;;;;;;11.93;9.73;;;-0.90;79.00;;;;;;5046410;28;20456;-81
2021/01/15 00:45:07;;;;;;;12.00;9.90;;;-0.90;79.40;;;;;;5057643;28;20468;-84
2021/01/15 00:47:34;;;;;;;12.90;8.87;;;-1.00;79.20;;;;;;5080446;28;20478;-82
2021/01/15 00:50:02;;;;;;;13.07;9.80;;;-1.00;79.10;;;;;;5074335;28;20478;-82
2021/01/15 00:52:28;;;;;;;10.57;8.70;;;-1.00;79.50;;;;;;5062521;28;20466;-80
2021/01/15 00:55:00;;;;;;;12.67;9.90;;;-1.00;79.50;;;;;;5058342;28;20841;-81
2021/01/15 00:57:26;;;;;;;10.97;8.87;;;-1.00;79.90;;;;;;5056324;28;20447;-81
2021/01/15 01:00:02;;;;;;;11.90;8.50;;;-1.10;79.80;;;;;;5054913;28;20466;-82
2021/01/15 01:02:35;;;;;;;11.80;9.57;;;-1.10;80.60;;;;;;5060301;28;20460;-82
2021/01/15 01:05:04;;;;;;;16.37;9.40;;;-1.20;80.50;;;;;;5058055;28;20469;-80
2021/01/15 01:07:32;;;;;;;15.30;8.93;;;-1.30;81.60;;;;;;5060856;28;20461;-80
2021/01/15 01:09:59;;;;;;;13.80;9.90;;;-1.40;82.50;;;;;;5052314;28;20447;-80
2021/01/15 01:12:28;;;;;;;11.70;9.13;;;-1.60;82.10;;;;;;5060557;28;20479;-80
2021/01/15 01:14:54;;;;;;;12.37;10.60;;;-1.70;84.50;;;;;;5063396;28;20438;-81
2021/01/15 01:17:23;;;;;;;12.17;9.87;;;-1.80;86.00;;;;;;5041545;28;20454;-81
2021/01/15 01:19:51;;;;;;;13.40;10.60;;;-1.70;85.50;;;;;;5059495;28;20469;-80
2021/01/15 01:22:17;;;;;;;15.80;9.90;;;-1.80;86.80;;;;;;5055495;28;20486;-80
2021/01/15 01:24:44;;;;;;;15.17;10.77;;;-1.80;86.40;;;;;;5058824;28;20522;-81
2021/01/15 01:27:10;;;;;;;14.33;11.03;;;-1.80;87.70;;;;;;5049249;28;21441;-81
2021/01/15 01:29:39;;;;;;;12.00;10.40;;;-1.90;86.80;;;;;;5057465;28;20461;-82
2021/01/15 01:32:06;;;;;;;16.47;12.43;;;-2.10;88.00;;;;;;5052220;28;20458;-81
2021/01/15 01:34:34;;;;;;;12.50;10.43;;;-2.20;90.20;;;;;;5054995;28;20446;-81
2021/01/15 01:37:02;;;;;;;13.67;11.20;;;-2.20;90.50;;;;;;5051795;28;20455;-81
2021/01/15 01:39:36;;;;;;;17.00;11.80;;;-2.30;91.10;;;;;;5053411;28;20958;-81
2021/01/15 01:42:04;;;;;;;13.50;10.50;;;-2.40;93.50;;;;;;5053297;28;20505;-81
2021/01/15 01:44:31;;;;;;;11.13;9.93;;;-2.40;92.90;;;;;;5055104;28;20449;-82
2021/01/15 01:46:57;;;;;;;15.50;11.67;;;-2.40;93.60;;;;;;5053862;28;20462;-81
2021/01/15 01:49:24;;;;;;;12.60;10.37;;;-2.40;93.50;;;;;;5050048;28;21060;-81
2021/01/15 01:51:52;;;;;;;13.10;11.10;;;-2.30;93.40;;;;;;5047600;28;20446;-82
2021/01/15 01:54:19;;;;;;;19.47;12.03;;;-2.50;91.90;;;;;;5051045;28;20525;-81
2021/01/15 01:56:46;;;;;;;18.73;11.50;;;-2.40;94.60;;;;;;5053211;28;20462;-81
2021/01/15 01:59:13;;;;;;;20.27;12.20;;;-2.50;93.10;;;;;;5054021;28;20446;-80
2021/01/15 02:01:40;;;;;;;14.50;11.93;;;-2.30;92.80;;;;;;5054030;28;20481;-82
2021/01/15 02:04:07;;;;;;;16.53;11.20;;;-2.40;91.70;;;;;;5050330;28;20445;-81
2021/01/15 02:06:35;;;;;;;14.53;10.97;;;-2.50;91.50;;;;;;5056121;28;20489;-82
2021/01/15 02:09:04;;;;;;;13.73;10.10;;;-2.30;91.60;;;;;;5061547;28;20462;-81
2021/01/15 02:11:38;;;;;;;16.73;11.77;;;-2.40;91.60;;;;;;5058925;28;20465;-81
2021/01/15 02:14:14;;;;;;;15.23;11.17;;;-2.40;91.10;;;;;;5058729;28;21007;-81
2021/01/15 02:16:41;;;;;;;15.57;10.87;;;-2.60;90.70;;;;;;5064004;28;20440;-81
2021/01/15 02:19:21;;;;;;;19.00;12.30;;;-2.70;92.60;;;;;;5063383;28;20483;-83
2021/01/15 02:22:15;;;;;;;15.90;10.70;;;-2.70;95.30;;;;;;5073130;28;20458;-84
2021/01/15 02:25:39;;;;;;;16.53;12.00;;;-2.70;94.70;;;;;;5066513;28;20457;-81
2021/01/15 02:28:43;;;;;;;15.50;10.57;;;-2.80;94.40;;;;;;5066192;28;20492;-84
2021/01/15 02:31:46;;;;;;;22.30;12.33;;;-2.90;95.70;;;;;;5064705;28;21175;-80
2021/01/15 02:34:28;;;;;;;15.40;11.17;;;-2.80;94.80;;;;;;5062428;28;20493;-80
2021/01/15 02:37:01;;;;;;;16.95;11.82;;;-2.90;93.10;;;;;;5057236;28;20449;-81
2021/01/15 02:39:42;;;;;;;16.20;11.90;;;-2.80;92.60;;;;;;5056606;28;20245;-81
2021/01/15 02:42:10;;;;;;;17.67;12.60;;;-2.90;93.30;;;;;;5063990;28;20524;-81
2021/01/15 02:44:39;;;;;;;14.00;10.27;;;-3.00;94.30;;;;;;5066488;28;20429;-81
2021/01/15 02:47:14;;;;;;;15.60;11.90;;;-3.00;95.00;;;;;;5070737;28;20481;-82
2021/01/15 02:49:43;;;;;;;16.73;11.63;;;-3.00;96.10;;;;;;5066877;28;20456;-81
2021/01/15 02:52:11;;;;;;;17.03;11.17;;;-3.10;98.30;;;;;;5060452;28;20460;-82
2021/01/15 02:54:40;;;;;;;16.00;10.43;;;-3.20;97.00;;;;;;5052694;28;20453;-82
2021/01/15 02:57:07;;;;;;;16.13;12.13;;;-3.20;97.20;;;;;;5051042;28;20450;-80
2021/01/15 02:59:33;;;;;;;17.33;12.07;;;-3.20;98.80;;;;;;5052771;28;20543;-80
2021/01/15 03:02:07;;;;;;;15.40;11.83;;;-3.20;97.70;;;;;;5031388;28;20533;-80
2021/01/15 03:04:41;;;;;;;17.30;11.93;;;-3.30;97.80;;;;;;5051501;28;20434;-82
2021/01/15 03:07:12;;;;;;;19.97;13.23;;;-3.20;99.90;;;;;;5033960;28;20507;-83
2021/01/15 03:09:44;;;;;;;15.83;11.27;;;-3.10;97.60;;;;;;5047304;28;20462;-82
2021/01/15 03:12:11;;;;;;;19.87;12.33;;;-3.20;94.90;;;;;;5051777;28;20501;-81
2021/01/15 03:14:41;;;;;;;18.63;13.10;;;-3.30;93.80;;;;;;5053437;28;20445;-80
2021/01/15 03:17:09;;;;;;;17.10;12.33;;;-3.30;98.10;;;;;;5032126;28;20445;-80
2021/01/15 03:19:38;;;;;;;17.07;11.07;;;-3.30;96.30;;;;;;5049681;28;20485;-81
2021/01/15 03:22:15;;;;;;;16.77;11.17;;;-3.30;94.20;;;;;;5051761;28;20488;-81
2021/01/15 03:24:51;;;;;;;16.93;10.90;;;-3.20;93.90;;;;;;5052021;28;20448;-80
2021/01/15 03:27:20;;;;;;;21.08;11.05;;;-3.20;92.60;;;;;;5056498;28;20478;-83
2021/01/15 03:29:50;;;;;;;18.00;11.83;;;-3.20;92.70;;;;;;5053663;28;20210;-83
2021/01/15 03:32:22;;;;;;;17.47;10.73;;;-3.20;91.40;;;;;;5053403;28;20466;-80
2021/01/15 03:34:48;;;;;;;16.17;11.00;;;-3.20;90.10;;;;;;5057788;28;20441;-81
2021/01/15 03:37:16;;;;;;;15.90;10.20;;;-3.20;88.20;;;;;;5059126;28;20455;-80
2021/01/15 03:39:44;;;;;;;16.30;10.60;;;-3.20;87.50;;;;;;5038976;28;20940;-80
2021/01/15 03:42:11;;;;;;;14.80;9.50;;;-3.30;85.60;;;;;;5049450;28;20446;-81
2021/01/15 03:44:38;;;;;;;15.27;10.20;;;-3.30;86.40;;;;;;5058459;28;20460;-81
2021/01/15 03:47:04;;;;;;;14.27;9.13;;;-3.40;85.40;;;;;;5052382;28;20465;-80
2021/01/15 03:49:31;;;;;;;15.63;10.57;;;-3.30;85.10;;;;;;5059964;28;20449;-80
2021/01/15 03:52:00;;;;;;;15.80;10.03;;;-3.20;84.10;;;;;;5038419;28;20445;-82
2021/01/15 03:54:28;;;;;;;14.93;9.47;;;-3.30;84.00;;;;;;5052442;28;20941;-81
2021/01/15 03:56:57;;;;;;;15.17;9.97;;;-3.40;84.70;;;;;;5078705;28;20453;-82
2021/01/15 03:59:23;;;;;;;13.43;9.50;;;-3.40;85.50;;;;;;5071482;28;20462;-81
2021/01/15 04:01:50;;;;;;;15.20;9.67;;;-3.40;85.90;;;;;;5064855;28;20445;-80
2021/01/15 04:04:16;;;;;;;13.57;8.67;;;-3.30;84.60;;;;;;5058896;28;20462;-82
2021/01/15 04:06:43;;;;;;;13.00;8.63;;;-3.40;84.40;;;;;;5064609;28;20465;-82
2021/01/15 04:09:10;;;;;;;13.37;8.30;;;-3.50;85.30;;;;;;5059354;28;20482;-81
2021/01/15 04:11:37;;;;;;;14.13;9.90;;;-3.50;86.40;;;;;;5060201;28;21002;-82
2021/01/15 04:14:04;;;;;;;11.20;8.23;;;-3.50;85.80;;;;;;5062545;28;21070;-80
2021/01/15 04:16:31;;;;;;;16.63;10.50;;;-3.50;85.10;;;;;;5057851;28;20544;-81
2021/01/15 04:18:57;;;;;;;12.40;8.77;;;-3.50;85.90;;;;;;5041563;28;20454;-81
2021/01/15 04:21:27;;;;;;;13.43;9.93;;;-3.40;84.90;;;;;;5058048;28;20454;-80
2021/01/15 04:23:53;;;;;;;13.70;9.33;;;-3.50;85.10;;;;;;5061954;28;20472;-82
2021/01/15 04:26:22;;;;;;;12.73;8.97;;;-3.50;84.90;;;;;;5059435;28;20929;-80
2021/01/15 04:29:00;;;;;;;16.07;10.13;;;-3.40;84.80;;;;;;5057070;28;20446;-80
2021/01/15 04:31:27;;;;;;;13.83;9.73;;;-3.40;84.70;;;;;;5058232;28;20453;-80
2021/01/15 04:33:54;;;;;;;14.60;9.97;;;-3.40;84.10;;;;;;5060652;28;20769;-81
2021/01/15 04:36:20;;;;;;;15.37;9.90;;;-3.30;82.90;;;;;;5058946;28;20457;-81
2021/01/15 04:38:48;;;;;;;12.67;9.20;;;-3.30;83.20;;;;;;5057460;28;20466;-81
2021/01/15 04:41:23;;;;;;;14.93;9.67;;;-3.30;82.40;;;;;;5060945;28;20453;-81
2021/01/15 04:43:55;;;;;;;15.10;9.00;;;-3.20;82.10;;;;;;5059829;28;20625;-82
2021/01/15 04:46:24;;;;;;;14.87;10.27;;;-3.30;81.70;;;;;;5060857;28;20445;-82
2021/01/15 04:48:52;;;;;;;12.93;10.07;;;-3.20;81.70;;;;;;5053990;28;20948;-80
2021/01/15 04:51:20;;;;;;;14.00;10.03;;;-3.20;81.30;;;;;;5039903;28;20483;-81
2021/01/15 04:53:55;;;;;;;13.50;8.63;;;-3.20;81.00;;;;;;5054135;28;20500;-80
2021/01/15 04:56:34;;;;;;;14.53;8.97;;;-3.20;81.10;;;;;;5051519;28;20579;-81
2021/01/15 04:59:03;;;;;;;12.97;10.67;;;-3.10;80.70;;;;;;5037249;28;20793;-81
2021/01/15 05:01:48;;;;;;;12.27;8.83;;;-3.00;80.40;;;;;;5065789;28;20446;-83
2021/01/15 05:04:16;;;;;;;11.57;8.90;;;-3.00;80.10;;;;;;5070657;28;20531;-81
2021/01/15 05:06:45;;;;;;;12.83;7.97;;;-3.00;80.10;;;;;;5074611;28;20454;-81
2021/01/15 05:09:13;;;;;;;12.40;9.67;;;-3.10;79.90;;;;;;5044690;28;20548;-81
2021/01/15 05:11:51;;;;;;;13.57;9.23;;;-3.10;80.10;;;;;;5056088;28;20451;-81
2021/01/15 05:14:20;;;;;;;16.87;10.20;;;-3.10;80.10;;;;;;5057501;28;20448;-80
2021/01/15 05:16:50;;;;;;;16.27;9.60;;;-3.20;80.60;;;;;;5054509;28;20454;-81
2021/01/15 05:19:17;;;;;;;11.33;8.97;;;-3.30;81.10;;;;;;5065691;28;21104;-81
2021/01/15 05:21:50;;;;;;;13.18;9.00;;;-3.40;81.90;;;;;;5056186;28;20458;-82
2021/01/15 05:24:17;;;;;;;12.40;9.10;;;-3.40;82.50;;;;;;5057561;28;20199;-82
2021/01/15 05:26:44;;;;;;;12.85;8.65;;;-3.50;83.30;;;;;;5061533;28;20523;-82
2021/01/15 05:29:10;;;;;;;15.10;9.83;;;-3.50;83.10;;;;;;5056458;28;20200;-81
2021/01/15 05:31:52;;;;;;;11.90;8.27;;;-3.70;82.60;;;;;;5054437;28;20516;-82
2021/01/15 05:34:19;;;;;;;14.53;10.30;;;-3.80;84.10;;;;;;5053747;28;20977;-84
2021/01/15 05:36:47;;;;;;;14.70;9.40;;;-3.80;84.90;;;;;;5057422;28;20453;-81
2021/01/15 05:39:18;;;;;;;15.30;10.30;;;-3.90;84.90;;;;;;5055283;28;20549;-81
2021/01/15 05:41:47;;;;;;;17.70;13.70;;;-4.00;85.90;;;;;;5051613;28;20937;-82
2021/01/15 05:44:27;;;;;;;19.08;12.75;;;-4.00;86.30;;;;;;5060001;28;20588;-82
2021/01/15 05:46:58;;;;;;;16.40;10.97;;;-4.00;87.10;;;;;;5052671;28;20240;-83
2021/01/15 05:49:25;;;;;;;15.48;10.68;;;-4.10;86.70;;;;;;5050771;28;20460;-84
2021/01/15 05:51:55;;;;;;;20.77;11.37;;;-4.10;86.80;;;;;;5051141;28;20200;-82
2021/01/15 05:54:34;;;;;;;13.93;10.40;;;-4.20;88.10;;;;;;5060035;28;20488;-85
2021/01/15 05:57:02;;;;;;;15.00;10.67;;;-4.20;88.50;;;;;;5048482;28;20464;-82
2021/01/15 05:59:29;;;;;;;18.83;12.30;;;-4.30;87.90;;;;;;5057406;28;20520;-82
2021/01/15 06:01:58;;;;;;;20.40;13.87;;;-4.30;89.30;;;;;;5055993;28;20219;-82
2021/01/15 06:04:35;;;;;;;20.55;12.55;;;-4.40;88.80;;;;;;5034150;28;20453;-83
2021/01/15 06:07:19;;;;;;;17.47;11.83;;;-4.50;89.90;;;;;;5056291;28;20573;-84
2021/01/15 06:09:47;;;;;;;18.55;11.75;;;-4.50;90.90;;;;;;5018437;28;20547;-83
2021/01/15 06:12:16;;;;;;;15.63;10.55;;;-4.40;91.50;;;;;;5051527;28;20286;-83
2021/01/15 06:14:56;;;;;;;16.17;11.60;;;-4.40;91.30;;;;;;5039832;28;20221;-83
2021/01/15 06:17:25;;;;;;;13.40;10.23;;;-4.30;90.50;;;;;;5058620;28;20500;-82
2021/01/15 06:19:55;;;;;;;13.97;10.20;;;-4.30;89.10;;;;;;5054552;28;20446;-84
2021/01/15 06:22:30;;;;;;;14.37;10.87;;;-4.30;88.00;;;;;;5036507;28;20454;-82
2021/01/15 06:25:08;;;;;;;21.40;11.93;;;-4.40;87.80;;;;;;5051470;28;20457;-82
2021/01/15 06:27:36;;;;;;;18.83;10.97;;;-4.30;89.60;;;;;;5050676;28;20984;-82
2021/01/15 06:30:08;;;;;;;21.42;12.60;;;-4.20;90.20;;;;;;5052962;28;20465;-82
2021/01/15 06:32:36;;;;;;;15.35;10.30;;;-4.20;89.20;;;;;;5061882;28;20195;-84
2021/01/15 06:35:03;;;;;;;18.70;11.10;;;-4.10;88.30;;;;;;5069613;28;20179;-84
2021/01/15 06:37:31;;;;;;;18.63;11.47;;;-4.00;87.30;;;;;;5077730;28;21023;-82
2021/01/15 06:40:06;;;;;;;17.53;11.20;;;-3.90;90.40;;;;;;5061436;28;20458;-81
2021/01/15 06:42:44;;;;;;;17.40;10.77;;;-3.80;89.30;;;;;;5058968;28;20471;-82
2021/01/15 06:45:14;;;;;;;15.57;10.40;;;-3.80;88.10;;;;;;5054901;28;20541;-81
2021/01/15 06:47:42;;;;;;;19.83;12.13;;;-3.90;86.60;;;;;;5065602;28;20528;-83
2021/01/15 06:50:19;;;;;;;16.07;11.10;;;-3.90;87.50;;;;;;5059653;28;20469;-86
2021/01/15 06:52:51;;;;;;;22.07;12.80;;;-3.90;86.70;;;;;;5070857;28;20529;-83
2021/01/15 06:55:19;;;;;;;24.03;11.87;;;-3.80;86.90;;;;;;5062903;28;20468;-81
2021/01/15 06:57:50;;;;;;;21.50;11.83;;;-3.90;85.90;;;;;;5056369;28;20443;-80
2021/01/15 07:00:22;;;;;;;19.13;11.07;;;-3.80;87.10;;;;;;5056299;28;20388;-82
2021/01/15 07:03:19;;;;;;;13.67;10.70;;;-3.80;86.80;;;;;;5062605;28;20199;-86
2021/01/15 07:05:47;;;;;;;16.77;11.37;;;-3.70;85.90;;;;;;5072304;28;20488;-86
2021/01/15 07:08:15;;;;;;;18.73;12.10;;;-3.60;85.60;;;;;;5074625;28;20464;-84
2021/01/15 07:10:46;;;;;;;16.63;11.53;;;-3.60;84.40;;;;;;5058322;28;20522;-77
2021/01/15 07:13:26;;;;;;;21.00;11.37;;;-3.60;84.10;;;;;;5049656;28;20469;-74
2021/01/15 07:15:55;;;;;;;18.17;11.43;;;-3.50;83.70;;;;;;5050755;28;20449;-77
2021/01/15 07:18:32;;;;;;;16.87;12.13;;;-3.50;83.40;;;;;;5048943;28;20195;-75
2021/01/15 07:21:05;;;;;;;16.88;9.98;;;-3.50;82.50;;;;;;5053258;28;20490;-80
2021/01/15 07:23:48;;;;;;;17.47;11.70;;;-3.60;82.20;;;;;;5046734;28;20249;-75
2021/01/15 07:26:20;;;;;;;19.67;10.07;;;-3.50;82.40;;;;;;5039526;28;21209;-74
2021/01/15 07:28:48;;;;;;;15.27;10.53;;;-3.40;82.40;;;;;;5042787;28;20572;-73
2021/01/15 07:31:23;;;;;;;14.13;9.80;;;-3.30;81.80;;;;;;5042019;28;20481;-75
2021/01/15 07:33:57;;;;;;;21.73;11.10;;;-3.30;81.00;;;;;;5040764;28;20453;-75
2021/01/15 07:36:38;;;;;;;17.20;10.20;;;-3.10;81.10;;;;;;5036612;28;20611;-77
2021/01/15 07:39:08;;;;;;;16.60;11.80;;;-3.10;79.20;;;;;;5043891;28;20453;-76
2021/01/15 07:41:41;;;;;;;19.23;12.30;;;-3.00;78.80;;;;;;5042831;28;20464;-74
2021/01/15 07:44:36;;;;;;;20.90;12.33;;;-3.00;78.20;;;;;;5050414;28;20446;-77
2021/01/15 07:47:11;;;;;;;15.70;10.90;;;-2.80;77.90;;;;;;5041350;28;21397;-75
2021/01/15 07:49:50;;;;;;;15.77;11.40;;;-2.90;77.20;;;;;;5044991;28;20491;-76
2021/01/15 07:52:27;;;;;;;19.10;11.90;;;-2.90;77.60;;;;;;5041713;28;20449;-74
2021/01/15 07:55:00;;;;;;;17.53;11.57;;;-2.80;77.60;;;;;;5042319;28;20954;-75
2021/01/15 07:57:32;;;;;;;17.67;11.43;;;-2.80;77.30;;;;;;5040455;28;20763;-74
2021/01/15 08:00:24;;;;;;;15.43;10.80;;;-2.60;77.40;;;;;;5042302;28;20542;-76
2021/01/15 08:03:01;;;;;;;14.70;10.67;;;-2.60;76.50;;;;;;5044615;28;20461;-77
2021/01/15 08:05:29;;;;;;;17.70;12.50;;;-2.40;76.50;;;;;;5047579;28;20441;-74
2021/01/15 08:08:10;;;;;;;23.60;13.20;;;-2.30;75.60;;;;;;5046082;28;20563;-75
2021/01/15 08:13:28;;;;;;;20.60;13.37;;;-2.20;75.10;;;;;;5055379;28;20457;-88
2021/01/15 08:15:56;;;;;;;19.30;12.30;;;-2.20;74.40;;;;;;5046021;28;20480;-88
2021/01/15 08:18:33;;;;;;;17.70;12.20;;;-1.90;75.10;;;;;;5069879;28;20453;-88
2021/01/15 08:21:02;;;;;;;16.80;11.67;;;-1.90;73.90;;;;;;5047670;28;20445;-88
2021/01/15 08:23:30;;;;;;;16.13;12.20;;;-2.00;73.60;;;;;;5059970;28;20446;-89
2021/01/15 08:26:33;;;;;;;15.60;11.60;;;-2.00;73.40;;;;;;5058720;28;20461;-87
2021/01/15 08:29:04;;;;;;;15.87;11.37;;;-1.90;73.40;;;;;;5019665;28;20460;-88
2021/01/15 08:31:36;;;;;;;17.63;11.80;;;-1.80;73.40;;;;;;5051494;28;20460;-81
2021/01/15 08:34:11;;;;;;;13.73;10.77;;;-1.60;72.90;;;;;;5034668;28;20471;-83
2021/01/15 08:36:42;;;;;;;18.27;15.27;;;-1.40;73.30;;;;;;5045881;28;20489;-78
2021/01/15 08:39:14;;;;;;;20.55;16.67;;;-1.30;72.60;;;;;;5058683;28;20448;-87
2021/01/15 08:41:44;;;;;;;17.00;12.93;;;-1.30;72.30;;;;;;5064664;28;20862;-86
2021/01/15 08:44:14;;;;;;;16.67;12.37;;;-1.10;72.00;;;;;;5060214;28;20518;-83
2021/01/15 08:46:41;;;;;;;14.68;11.30;;;-1.20;71.90;;;;;;5060383;28;20458;-84
2021/01/15 08:49:09;;;;;;;14.23;9.97;;;-1.10;71.10;;;;;;5063353;28;20205;-82
2021/01/15 08:51:39;;;;;;;14.93;12.82;;;-1.30;70.40;;;;;;5059468;28;20467;-81
2021/01/15 08:54:08;;;;;;;15.93;11.37;;;-1.20;70.40;;;;;;5054515;28;20309;-79
2021/01/15 08:56:37;;;;;;;18.60;12.07;;;-1.00;70.40;;;;;;5049217;28;20544;-80
2021/01/15 08:59:05;;;;;;;14.33;10.50;;;-1.40;69.80;;;;;;5055273;28;21042;-81
2021/01/15 09:01:34;;;;;;;15.25;13.05;;;-0.90;70.20;;;;;;5058759;28;20455;-86
2021/01/15 09:04:07;;;;;;;13.93;11.80;;;-0.90;69.60;;;;;;5060893;28;20287;-88
2021/01/15 09:06:38;;;;;;;14.17;10.83;;;-0.90;69.80;;;;;;5064175;28;20459;-89
2021/01/15 09:09:11;;;;;;;14.40;10.00;;;-0.90;69.70;;;;;;5046972;28;20458;-84
2021/01/15 09:11:44;;;;;;;14.57;10.47;;;-0.80;69.20;;;;;;5062065;28;20484;-83
2021/01/15 09:14:13;;;;;;;12.63;9.33;;;-0.60;69.50;;;;;;5061809;28;20457;-85
2021/01/15 09:16:44;;;;;;;17.10;10.60;;;-0.50;68.50;;;;;;5036671;28;20502;-86
2021/01/15 09:19:18;;;;;;;12.17;10.30;;;-0.50;69.10;;;;;;5066903;28;20460;-87
2021/01/15 09:22:00;;;;;;;16.50;12.10;;;-0.50;68.60;;;;;;5067698;28;20473;-87
2021/01/15 09:24:30;;;;;;;16.33;9.53;;;-0.30;68.00;;;;;;5068089;28;20457;-83
2021/01/15 09:27:01;;;;;;;11.63;9.80;;;-0.20;68.40;;;;;;5058738;28;21365;-86
2021/01/15 09:29:31;;;;;;;20.50;12.43;;;-0.10;67.80;;;;;;5062572;28;20461;-87
2021/01/15 09:31:59;;;;;;;19.57;14.70;;;0.20;68.60;;;;;;5040406;28;20450;-85
2021/01/15 09:34:29;;;;;;;16.73;13.97;;;0.20;67.70;;;;;;5062251;28;20454;-84
2021/01/15 09:36:56;;;;;;;20.05;16.50;;;0.10;67.80;;;;;;5040732;28;20455;-73
2021/01/15 09:39:25;;;;;;;20.33;15.17;;;-0.20;67.90;;;;;;5053032;28;20225;-78
2021/01/15 09:41:53;;;;;;;19.50;13.07;;;-0.10;68.40;;;;;;5056200;28;20443;-78
2021/01/15 09:44:21;;;;;;;19.57;13.10;;;-0.40;68.10;;;;;;5052887;28;21070;-76
2021/01/15 09:46:49;;;;;;;14.73;11.80;;;-0.10;68.20;;;;;;5045392;28;20458;-78
2021/01/15 09:49:16;;;;;;;17.00;12.63;;;0.00;68.10;;;;;;5053965;28;20462;-77
2021/01/15 09:51:47;;;;;;;19.30;11.87;;;0.10;67.70;;;;;;5044979;28;20460;-78
2021/01/15 09:54:14;;;;;;;16.70;11.03;;;-0.30;68.00;;;;;;5045547;28;20441;-77
2021/01/15 09:56:44;;;;;;;21.40;13.90;;;-0.50;67.70;;;;;;5042762;28;20454;-79
2021/01/15 09:59:16;;;;;;;16.03;12.10;;;-0.50;68.40;;;;;;5047896;28;20461;-79
2021/01/15 10:01:44;;;;;;;20.63;11.83;;;-0.40;67.70;;;;;;5048313;28;20996;-79
2021/01/15 10:04:11;;;;;;;14.63;11.23;;;-0.50;68.10;;;;;;5044696;28;20439;-77
2021/01/15 10:06:39;;;;;;;15.83;11.10;;;-0.70;68.50;;;;;;5046110;28;20471;-80
2021/01/15 10:09:06;;;;;;;14.33;10.13;;;-0.20;68.30;;;;;;5044300;28;20480;-78
2021/01/15 10:11:37;;;;;;;17.43;11.03;;;0.00;67.50;;;;;;5042357;28;20460;-79
2021/01/15 10:14:05;;;;;;;17.63;13.65;;;0.00;67.40;;;;;;5049011;28;20452;-79
2021/01/15 10:16:36;;;;;;;17.37;13.03;;;-0.30;67.80;;;;;;5045075;28;20229;-78
2021/01/15 10:19:02;;;;;;;18.07;13.43;;;-0.50;67.50;;;;;;5046404;28;20459;-78
2021/01/15 10:21:30;;;;;;;17.63;11.60;;;-0.60;67.80;;;;;;5046485;28;20458;-79
2021/01/15 10:23:57;;;;;;;14.23;11.30;;;-0.40;68.00;;;;;;5038862;28;20529;-78
2021/01/15 10:26:26;;;;;;;23.33;11.87;;;-0.30;68.40;;;;;;5043583;28;20466;-78
2021/01/15 10:28:56;;;;;;;20.43;13.17;;;-0.10;67.30;;;;;;5043175;28;20489;-78
2021/01/15 10:31:25;;;;;;;16.70;13.17;;;0.00;68.00;;;;;;5048228;28;20451;-77
2021/01/15 10:33:52;;;;;;;24.40;12.73;;;0.20;67.80;;;;;;5041974;28;20459;-77
2021/01/15 10:36:19;;;;;;;16.13;12.10;;;0.10;67.40;;;;;;5043968;28;20502;-77
2021/01/15 10:38:46;;;;;;;19.40;13.47;;;0.10;67.80;;;;;;5043812;28;20514;-78
2021/01/15 10:41:13;;;;;;;17.13;11.47;;;0.50;67.50;;;;;;5055948;28;20499;-81
2021/01/15 10:43:40;;;;;;;22.60;13.10;;;0.70;66.70;;;;;;5057221;28;20544;-78
2021/01/15 10:46:07;;;;;;;19.40;12.60;;;0.20;65.90;;;;;;5047393;28;20508;-79
2021/01/15 10:48:35;;;;;;;17.40;12.13;;;0.70;66.50;;;;;;5053724;28;20465;-79
2021/01/15 10:51:06;;;;;;;22.30;11.80;;;0.80;66.20;;;;;;5050462;28;20486;-78
2021/01/15 10:53:32;;;;;;;23.07;13.00;;;0.80;66.10;;;;;;5060136;28;20481;-80
2021/01/15 10:56:00;;;;;;;23.70;11.40;;;0.80;66.00;;;;;;5062229;28;20453;-80
2021/01/15 10:58:30;;;;;;;13.93;11.27;;;0.90;66.40;;;;;;5057301;28;20865;-80
2021/01/15 11:00:57;;;;;;;16.77;11.83;;;0.80;65.70;;;;;;5050680;28;20482;-80
2021/01/15 11:03:25;;;;;;;17.10;11.67;;;0.90;66.20;;;;;;5050254;28;20457;-80
2021/01/15 11:05:52;;;;;;;15.07;11.93;;;0.90;65.90;;;;;;5048290;28;20458;-79
2021/01/15 11:08:19;;;;;;;21.43;12.10;;;1.30;65.10;;;;;;5048367;28;20239;-79
2021/01/15 11:10:49;;;;;;;15.10;11.43;;;1.20;66.20;;;;;;5046561;28;20452;-79
2021/01/15 11:13:16;;;;;;;16.07;11.80;;;1.30;65.40;;;;;;5049346;28;20473;-79
2021/01/15 11:15:42;;;;;;;14.70;12.07;;;1.10;65.50;;;;;;5043696;28;20460;-78
2021/01/15 11:18:10;;;;;;;17.97;11.73;;;0.80;65.80;;;;;;5043333;28;20443;-77
2021/01/15 11:20:36;;;;;;;13.70;11.03;;;1.00;65.30;;;;;;5045774;28;20451;-79
2021/01/15 11:23:03;;;;;;;15.33;11.10;;;1.40;65.30;;;;;;5055434;28;20514;-80
2021/01/15 11:25:31;;;;;;;20.20;10.83;;;1.40;65.50;;;;;;5046994;28;21293;-79
2021/01/15 11:27:58;;;;;;;15.20;11.63;;;1.10;65.00;;;;;;5053122;28;20525;-78
2021/01/15 11:30:25;;;;;;;14.70;10.50;;;1.10;65.60;;;;;;5045804;28;20510;-78
2021/01/15 11:32:52;;;;;;;14.13;11.00;;;1.00;65.60;;;;;;5026786;28;21017;-78
2021/01/15 11:35:18;;;;;;;16.00;11.80;;;1.10;65.80;;;;;;5042653;28;20450;-78
2021/01/15 11:37:45;;;;;;;16.27;11.63;;;1.00;65.30;;;;;;5039978;28;20551;-78
2021/01/15 11:40:14;;;;;;;14.97;11.23;;;0.70;65.40;;;;;;5048207;28;20450;-78
2021/01/15 11:42:42;;;;;;;18.60;12.50;;;1.10;66.00;;;;;;5044899;28;20532;-79
2021/01/15 11:45:11;;;;;;;13.57;11.30;;;0.90;65.60;;;;;;5042696;28;20868;-78
2021/01/15 11:47:38;;;;;;;14.00;11.97;;;1.10;65.70;;;;;;5046733;28;20588;-79
2021/01/15 11:50:06;;;;;;;14.80;11.67;;;1.10;66.10;;;;;;5045704;28;20452;-79
2021/01/15 11:52:33;;;;;;;14.17;11.10;;;1.20;65.90;;;;;;5050403;28;20466;-79
2021/01/15 11:55:00;;;;;;;13.07;10.90;;;1.20;65.50;;;;;;5051353;28;20468;-77
2021/01/15 11:57:27;;;;;;;16.57;11.63;;;1.00;65.90;;;;;;5042734;28;20451;-78
2021/01/15 11:59:55;;;;;;;19.50;12.10;;;0.90;66.10;;;;;;5041304;28;20461;-78
2021/01/15 12:02:21;;;;;;;14.60;12.33;;;0.90;66.10;;;;;;5045273;28;20850;-77
2021/01/15 12:04:48;;;;;;;16.10;11.47;;;1.00;66.10;;;;;;5055828;28;20508;-78
2021/01/15 12:07:15;;;;;;;14.77;12.00;;;1.30;65.50;;;;;;5054041;28;20442;-79
2021/01/15 12:09:44;;;;;;;15.63;10.90;;;1.40;66.00;;;;;;5061058;28;20447;-78
2021/01/15 12:12:11;;;;;;;16.57;11.70;;;1.10;65.80;;;;;;5046459;28;20468;-77
2021/01/15 12:14:37;;;;;;;14.17;11.97;;;1.40;66.50;;;;;;5055575;28;20455;-79
2021/01/15 12:17:05;;;;;;;15.00;11.37;;;1.30;65.70;;;;;;5052593;28;20852;-79
2021/01/15 12:19:32;;;;;;;17.90;11.00;;;1.30;66.10;;;;;;5051199;28;20464;-76
2021/01/15 12:21:59;;;;;;;16.63;14.38;;;1.50;65.90;;;;;;5046709;28;20434;-78
2021/01/15 12:24:27;;;;;;;14.77;12.35;;;1.30;65.90;;;;;;5046966;28;20460;-77
2021/01/15 12:26:59;;;;;;;15.00;11.77;;;1.50;65.90;;;;;;5046833;28;20862;-81
2021/01/15 12:29:27;;;;;;;16.77;14.40;;;1.40;65.80;;;;;;5040634;28;20444;-76
2021/01/15 12:31:55;;;;;;;17.00;13.60;;;1.40;66.10;;;;;;5052322;28;20456;-83
2021/01/15 12:34:25;;;;;;;19.23;13.37;;;1.40;66.10;;;;;;5052795;28;20206;-87
2021/01/15 12:36:54;;;;;;;14.77;11.60;;;1.10;66.00;;;;;;5049387;28;20469;-87
2021/01/15 12:39:21;;;;;;;12.57;11.20;;;0.80;66.00;;;;;;5037235;28;20453;-85
2021/01/15 12:41:51;;;;;;;16.73;11.40;;;1.00;66.80;;;;;;5035902;28;20463;-86
2021/01/15 12:44:34;;;;;;;16.47;11.47;;;0.90;66.50;;;;;;5052605;28;20465;-82
2021/01/15 12:47:01;;;;;;;13.87;11.43;;;1.20;66.40;;;;;;5070481;28;20465;-84
2021/01/15 12:49:32;;;;;;;16.50;11.83;;;1.20;66.40;;;;;;5069125;28;20811;-83